1867 Hurricane NOT_NAMED (1867242N12333)


IBTrACS version v04r00. Visit IBTrACS website for data access.
Please direct all questions to the IBTrACS Q and A forum

Storm track - Intensity - Wind Radii - Intensity Data - Source Data - All data

Summary Information

Storm ID 1867242N12333
Start Aug 29 12Z
Max Intensity 65 kt (Sep 1 06Z), 992 mb (Sep 11 18Z)
End Sep 13 12Z
ATCF IDs
Track status Best track data.

Storm track plot

Map of storm track

Intensity plots

Map of storm track

Radial wind information

No radial wind information for this storm


Position and Intensity Table

BASIN ISO_TIME_________ NATURE LAT LON MLC WIND MLC PRES
degrees north degrees east kts mb
NA 1867-08-29 12:00:00 TS 12.30 -27.50 35
NA 15:00:00 TS 12.35 -28.00 35
NA 18:00:00 TS 12.40 -28.50 35
NA 21:00:00 TS 12.45 -29.00 35
NA 1867-08-30 00:00:00 TS 12.50 -29.50 35
NA 03:00:00 TS 12.56 -30.00 35
NA 06:00:00 TS 12.60 -30.50 35
NA 09:00:00 TS 12.60 -31.02 40
NA 12:00:00 TS 12.60 -31.50 45
NA 15:00:00 TS 12.64 -31.92 45
NA 18:00:00 TS 12.70 -32.30 45
NA 21:00:00 TS 12.74 -32.65 45
NA 1867-08-31 00:00:00 TS 12.80 -33.00 45
NA 03:00:00 TS 12.89 -33.40 45
NA 06:00:00 TS 13.00 -33.80 45
NA 09:00:00 TS 13.09 -34.14 50
NA 12:00:00 TS 13.20 -34.50 55
NA 15:00:00 TS 13.34 -34.98 55
NA 18:00:00 TS 13.50 -35.50 55
NA 21:00:00 TS 13.64 -36.00 57
NA 1867-09-01 00:00:00 TS 13.80 -36.50 60
NA 03:00:00 TS 14.00 -37.00 62
NA 06:00:00 TS 14.20 -37.50 65
NA 09:00:00 TS 14.29 -38.01 65
NA 12:00:00 TS 14.50 -38.50 65
NA 15:00:00 TS 15.03 -38.96 65
NA 18:00:00 TS 15.70 -39.40 65
NA 21:00:00 TS 16.30 -39.85 65
NA 1867-09-02 00:00:00 TS 16.90 -40.30 65
NA 03:00:00 TS 17.50 -40.76 65
NA 06:00:00 TS 18.10 -41.20 65
NA 09:00:00 TS 18.67 -41.64 65
NA 12:00:00 TS 19.30 -42.00 65
NA 15:00:00 TS 20.08 -42.23 65
NA 18:00:00 TS 20.90 -42.40 65
NA 21:00:00 TS 21.66 -42.60 65
NA 1867-09-03 00:00:00 TS 22.40 -42.80 65
NA 03:00:00 TS 23.15 -43.01 65
NA 06:00:00 TS 23.90 -43.20 65
NA 09:00:00 TS 24.69 -43.32 65
NA 12:00:00 TS 25.40 -43.40 65
NA 15:00:00 TS 25.94 -43.50 65
NA 18:00:00 TS 26.40 -43.60 65
NA 21:00:00 TS 26.85 -43.71 65
NA 1867-09-04 00:00:00 TS 27.30 -43.80 65
NA 03:00:00 TS 27.80 -43.86 65
NA 06:00:00 TS 28.30 -43.90 65
NA 09:00:00 TS 28.73 -43.94 65
NA 12:00:00 TS 29.20 -44.00 65
NA 15:00:00 TS 29.78 -44.14 65
NA 18:00:00 TS 30.40 -44.30 65
NA 21:00:00 TS 31.04 -44.40 65
NA 1867-09-05 00:00:00 TS 31.60 -44.50 65
NA 03:00:00 TS 31.99 -44.61 62
NA 06:00:00 TS 32.30 -44.80 60
NA 09:00:00 TS 32.67 -45.21 60
NA 12:00:00 TS 33.00 -45.60 60
NA 15:00:00 TS 33.22 -45.74 57
NA 18:00:00 TS 33.40 -45.80 55
NA 21:00:00 TS 33.60 -45.95 55
NA 1867-09-06 00:00:00 TS 33.80 -46.10 55
NA 03:00:00 TS 34.00 -46.21 55
NA 06:00:00 TS 34.20 -46.30 55
NA 09:00:00 TS 34.41 -46.41 55
NA 12:00:00 TS 34.60 -46.50 55
NA 15:00:00 TS 34.76 -46.56 55
NA 18:00:00 TS 34.90 -46.60 55
NA 21:00:00 TS 35.05 -46.64 55
NA 1867-09-07 00:00:00 TS 35.20 -46.70 55
NA 03:00:00 TS 35.35 -46.80 52
NA 06:00:00 TS 35.50 -46.90 50
NA 09:00:00 TS 35.67 -46.96 50
NA 12:00:00 TS 35.80 -47.00 50
NA 15:00:00 TS 35.83 -47.06 50
NA 18:00:00 TS 35.80 -47.10 50
NA 21:00:00 TS 35.76 -47.10 50
NA 1867-09-08 00:00:00 TS 35.70 -47.10 50
NA 03:00:00 TS 35.66 -47.15 50
NA 06:00:00 TS 35.60 -47.20 50
NA 09:00:00 TS 35.49 -47.21 50
NA 12:00:00 TS 35.40 -47.20 50
NA 15:00:00 TS 35.39 -47.19 50
NA 18:00:00 TS 35.40 -47.20 50
NA 21:00:00 TS 35.34 -47.24 50
NA 1867-09-09 00:00:00 TS 35.30 -47.30 50
NA 03:00:00 TS 35.33 -47.35 50
NA 06:00:00 TS 35.40 -47.40 50
NA 09:00:00 TS 35.45 -47.46 50
NA 12:00:00 TS 35.50 -47.50 50
NA 15:00:00 TS 35.55 -47.51 50
NA 18:00:00 TS 35.60 -47.50 50
NA 21:00:00 TS 35.65 -47.50 50
NA 1867-09-10 00:00:00 TS 35.70 -47.50 50
NA 03:00:00 TS 35.75 -47.50 52
NA 06:00:00 TS 35.80 -47.50 55
NA 09:00:00 TS 35.86 -47.50 55
NA 12:00:00 TS 35.90 -47.50 55
NA 15:00:00 TS 35.90 -47.50 55
NA 18:00:00 TS 35.90 -47.50 55
NA 21:00:00 TS 35.95 -47.51 55
NA 1867-09-11 00:00:00 TS 36.00 -47.50 55
NA 03:00:00 TS 36.00 -47.46 55
NA 06:00:00 TS 36.00 -47.40 55
NA 09:00:00 TS 36.03 -47.35 55
NA 12:00:00 TS 36.10 -47.30 55
NA 15:00:00 TS 36.18 -47.25 57
NA 18:00:00 TS 36.30 -47.20 60 992
NA 21:00:00 TS 36.48 -47.16 60
NA 1867-09-12 00:00:00 TS 36.70 -47.10 60
NA 03:00:00 TS 36.90 -46.97 60
NA 06:00:00 TS 37.10 -46.80 60
NA 09:00:00 TS 37.24 -46.69 57
NA 12:00:00 TS 37.50 -46.50 55
NA 15:00:00 TS 38.05 -46.15 55
NA 18:00:00 TS 38.70 -45.70 55
NA 21:00:00 TS 39.25 -45.26 52
NA 1867-09-13 00:00:00 TS 39.80 -44.80 50
NA 03:00:00 TS 40.40 -44.35 47
NA 06:00:00 TS 41.00 -43.90 45
NA 09:00:00 TS 41.56 -43.45 42
NA 12:00:00 TS 42.10 -43.00 40

Source Information

Agency Information
USA
TOKYO
CMA
HKO
NEWDELHI
REUNION
BOM
NADI
WELLINGTON
DS824
TD9636
TD9635
NEUMANN
MLC

All available IBTrACS Data

SEASON BASIN SUBBASIN ISO_TIME_________ NATURE LAT LON DIST2LAND LANDFALL IFLAG USA SSHS MLC LAT MLC LON MLC CLASS MLC WIND MLC PRES STORM SPEED STORM DIR
Year degrees north degrees east km km 1 degrees north degrees east kts mb kts degrees
1867 NA NA 1867-08-29 12:00:00 TS 12.30 -27.50 1114 1114 _____________O -1 12.30 -27.50 TS 35 10 276
1867 NA NA 15:00:00 TS 12.35 -28.00 1164 1164 _____________P -1 12.35 -28.00 TS 35 10 276
1867 NA NA 18:00:00 TS 12.40 -28.50 1217 1217 _____________O -1 12.40 -28.50 TS 35 10 276
1867 NA NA 21:00:00 TS 12.45 -29.00 1270 1267 _____________P -1 12.45 -29.00 TS 35 10 276
1867 NA NA 1867-08-30 00:00:00 TS 12.50 -29.50 1320 1320 _____________O -1 12.50 -29.50 TS 35 10 276
1867 NA NA 03:00:00 TS 12.56 -30.00 1371 1371 _____________P -1 12.56 -30.00 TS 35 10 276
1867 NA NA 06:00:00 TS 12.60 -30.50 1424 1424 _____________O -1 12.60 -30.50 TS 35 10 272
1867 NA NA 09:00:00 TS 12.60 -31.02 1478 1478 _____________P -1 12.60 -31.02 TS 40 10 270
1867 NA NA 12:00:00 TS 12.60 -31.50 1531 1531 _____________O -1 12.60 -31.50 TS 45 9 273
1867 NA NA 15:00:00 TS 12.64 -31.92 1574 1574 _____________P -1 12.64 -31.92 TS 45 8 277
1867 NA NA 18:00:00 TS 12.70 -32.30 1614 1614 _____________O -1 12.70 -32.30 TS 45 7 278
1867 NA NA 21:00:00 TS 12.74 -32.65 1657 1655 _____________P -1 12.74 -32.65 TS 45 7 278
1867 NA NA 1867-08-31 00:00:00 TS 12.80 -33.00 1688 1688 _____________O -1 12.80 -33.00 TS 45 7 282
1867 NA NA 03:00:00 TS 12.89 -33.40 1729 1729 _____________P -1 12.89 -33.40 TS 45 8 284
1867 NA NA 06:00:00 TS 13.00 -33.80 1770 1770 _____________O -1 13.00 -33.80 TS 45 7 286
1867 NA NA 09:00:00 TS 13.09 -34.14 1801 1801 _____________P -1 13.09 -34.14 TS 50 7 286
1867 NA NA 12:00:00 TS 13.20 -34.50 1842 1842 _____________O -1 13.20 -34.50 TS 55 9 287
1867 NA NA 15:00:00 TS 13.34 -34.98 1890 1890 _____________P -1 13.34 -34.98 TS 55 10 287
1867 NA NA 18:00:00 TS 13.50 -35.50 1897 1892 _____________O -1 13.50 -35.50 TS 55 10 287
1867 NA NA 21:00:00 TS 13.64 -36.00 1895 1895 _____________P -1 13.64 -36.00 TS 57 10 287
1867 NA NA 1867-09-01 00:00:00 TS 13.80 -36.50 1906 1904 _____________O -1 13.80 -36.50 TS 60 10 290
1867 NA NA 03:00:00 TS 14.00 -37.00 1908 1876 _____________P -1 14.00 -37.00 TS 62 11 292
1867 NA NA 06:00:00 TS 14.20 -37.50 1876 1839 _____________O -1 14.20 -37.50 HU 65 10 287
1867 NA NA 09:00:00 TS 14.29 -38.01 1839 1809 _____________P -1 14.29 -38.01 HU 65 10 287
1867 NA NA 12:00:00 TS 14.50 -38.50 1809 1799 _____________O -1 14.50 -38.50 HU 65 12 309
1867 NA NA 15:00:00 TS 15.03 -38.96 1803 1803 _____________P -1 15.03 -38.96 HU 65 15 324
1867 NA NA 18:00:00 TS 15.70 -39.40 1823 1823 _____________O -1 15.70 -39.40 HU 65 15 326
1867 NA NA 21:00:00 TS 16.30 -39.85 1832 1832 _____________P -1 16.30 -39.85 HU 65 15 324
1867 NA NA 1867-09-02 00:00:00 TS 16.90 -40.30 1852 1852 _____________O -1 16.90 -40.30 HU 65 15 324
1867 NA NA 03:00:00 TS 17.50 -40.76 1869 1869 _____________P -1 17.50 -40.76 HU 65 15 324
1867 NA NA 06:00:00 TS 18.10 -41.20 1896 1896 _____________O -1 18.10 -41.20 HU 65 14 324
1867 NA NA 09:00:00 TS 18.67 -41.64 1926 1919 _____________P -1 18.67 -41.64 HU 65 14 328
1867 NA NA 12:00:00 TS 19.30 -42.00 1952 1952 _____________O -1 19.30 -42.00 HU 65 15 338
1867 NA NA 15:00:00 TS 20.08 -42.23 2012 2012 _____________P -1 20.08 -42.23 HU 65 17 347
1867 NA NA 18:00:00 TS 20.90 -42.40 2074 2074 _____________O -1 20.90 -42.40 HU 65 16 348
1867 NA NA 21:00:00 TS 21.66 -42.60 2138 2138 _____________P -1 21.66 -42.60 HU 65 16 346
1867 NA NA 1867-09-03 00:00:00 TS 22.40 -42.80 2195 2195 _____________O -1 22.40 -42.80 HU 65 15 346
1867 NA NA 03:00:00 TS 23.15 -43.01 2262 2262 _____________P -1 23.15 -43.01 HU 65 16 346
1867 NA NA 06:00:00 TS 23.90 -43.20 2321 2321 _____________O -1 23.90 -43.20 HU 65 16 350
1867 NA NA 09:00:00 TS 24.69 -43.32 2396 2396 _____________P -1 24.69 -43.32 HU 65 15 353
1867 NA NA 12:00:00 TS 25.40 -43.40 2415 2414 _____________O -1 25.40 -43.40 HU 65 13 352
1867 NA NA 15:00:00 TS 25.94 -43.50 2420 2403 _____________P -1 25.94 -43.50 HU 65 10 350
1867 NA NA 18:00:00 TS 26.40 -43.60 2403 2357 _____________O -1 26.40 -43.60 HU 65 9 348
1867 NA NA 21:00:00 TS 26.85 -43.71 2346 2301 _____________P -1 26.85 -43.71 HU 65 9 349
1867 NA NA 1867-09-04 00:00:00 TS 27.30 -43.80 2301 2245 _____________O -1 27.30 -43.80 HU 65 10 352
1867 NA NA 03:00:00 TS 27.80 -43.86 2245 2192 _____________P -1 27.80 -43.86 HU 65 10 355
1867 NA NA 06:00:00 TS 28.30 -43.90 2192 2150 _____________O -1 28.30 -43.90 HU 65 9 356
1867 NA NA 09:00:00 TS 28.73 -43.94 2150 2094 _____________P -1 28.73 -43.94 HU 65 9 355
1867 NA NA 12:00:00 TS 29.20 -44.00 2094 2038 _____________O -1 29.20 -44.00 HU 65 11 350
1867 NA NA 15:00:00 TS 29.78 -44.14 2028 1958 _____________P -1 29.78 -44.14 HU 65 12 348
1867 NA NA 18:00:00 TS 30.40 -44.30 1958 1892 _____________O -1 30.40 -44.30 HU 65 13 350
1867 NA NA 21:00:00 TS 31.04 -44.40 1892 1827 _____________P -1 31.04 -44.40 HU 65 12 352
1867 NA NA 1867-09-05 00:00:00 TS 31.60 -44.50 1827 1782 _____________O -1 31.60 -44.50 HU 65 10 350
1867 NA NA 03:00:00 TS 31.99 -44.61 1782 1744 _____________P -1 31.99 -44.61 HU 62 7 340
1867 NA NA 06:00:00 TS 32.30 -44.80 1744 1688 _____________O -1 32.30 -44.80 TS 60 9 323
1867 NA NA 09:00:00 TS 32.67 -45.21 1688 1644 _____________P -1 32.67 -45.21 TS 60 10 316
1867 NA NA 12:00:00 TS 33.00 -45.60 1644 1620 _____________O -1 33.00 -45.60 TS 60 7 321
1867 NA NA 15:00:00 TS 33.22 -45.74 1620 1596 _____________P -1 33.22 -45.74 TS 57 4 337
1867 NA NA 18:00:00 TS 33.40 -45.80 1596 1571 _____________O -1 33.40 -45.80 TS 55 4 335
1867 NA NA 21:00:00 TS 33.60 -45.95 1571 1544 _____________P -1 33.60 -45.95 TS 55 5 328
1867 NA NA 1867-09-06 00:00:00 TS 33.80 -46.10 1544 1520 _____________O -1 33.80 -46.10 TS 55 5 332
1867 NA NA 03:00:00 TS 34.00 -46.21 1520 1496 _____________P -1 34.00 -46.21 TS 55 4 337
1867 NA NA 06:00:00 TS 34.20 -46.30 1496 1472 _____________O -1 34.20 -46.30 TS 55 4 338
1867 NA NA 09:00:00 TS 34.41 -46.41 1472 1448 _____________P -1 34.41 -46.41 TS 55 4 338
1867 NA NA 12:00:00 TS 34.60 -46.50 1448 1434 _____________O -1 34.60 -46.50 TS 55 4 341
1867 NA NA 15:00:00 TS 34.76 -46.56 1424 1413 _____________P -1 34.76 -46.56 TS 55 3 346
1867 NA NA 18:00:00 TS 34.90 -46.60 1413 1403 _____________O -1 34.90 -46.60 TS 55 3 346
1867 NA NA 21:00:00 TS 35.05 -46.64 1403 1379 _____________P -1 35.05 -46.64 TS 55 3 346
1867 NA NA 1867-09-07 00:00:00 TS 35.20 -46.70 1379 1365 _____________O -1 35.20 -46.70 TS 55 3 336
1867 NA NA 03:00:00 TS 35.35 -46.80 1355 1341 _____________P -1 35.35 -46.80 TS 52 3 332
1867 NA NA 06:00:00 TS 35.50 -46.90 1341 1317 _____________O -1 35.50 -46.90 TS 50 3 338
1867 NA NA 09:00:00 TS 35.67 -46.96 1317 1306 _____________P -1 35.67 -46.96 TS 50 3 346
1867 NA NA 12:00:00 TS 35.80 -47.00 1306 1303 _____________O -1 35.80 -47.00 TS 50 2 333
1867 NA NA 15:00:00 TS 35.83 -47.06 1303 1303 _____________P -1 35.83 -47.06 TS 50 1 270
1867 NA NA 18:00:00 TS 35.80 -47.10 1303 1303 _____________O -1 35.80 -47.10 TS 50 1 204
1867 NA NA 21:00:00 TS 35.76 -47.10 1303 1303 _____________P -1 35.76 -47.10 TS 50 1 0
1867 NA NA 1867-09-08 00:00:00 TS 35.70 -47.10 1314 1314 _____________O -1 35.70 -47.10 TS 50 1 197
1867 NA NA 03:00:00 TS 35.66 -47.15 1310 1310 _____________P -1 35.66 -47.15 TS 50 1 217
1867 NA NA 06:00:00 TS 35.60 -47.20 1321 1321 _____________O -1 35.60 -47.20 TS 50 2 191
1867 NA NA 09:00:00 TS 35.49 -47.21 1331 1331 _____________P -1 35.49 -47.21 TS 50 2 172
1867 NA NA 12:00:00 TS 35.40 -47.20 1342 1342 _____________O -1 35.40 -47.20 TS 50 1 0
1867 NA NA 15:00:00 TS 35.39 -47.19 1342 1342 _____________P -1 35.39 -47.19 TS 50 0 0
1867 NA NA 18:00:00 TS 35.40 -47.20 1342 1342 _____________O -1 35.40 -47.20 TS 50 1 223
1867 NA NA 21:00:00 TS 35.34 -47.24 1352 1349 _____________P -1 35.34 -47.24 TS 50 1 217
1867 NA NA 1867-09-09 00:00:00 TS 35.30 -47.30 1349 1349 _____________O -1 35.30 -47.30 TS 50 1 265
1867 NA NA 03:00:00 TS 35.33 -47.35 1349 1336 _____________P -1 35.33 -47.35 TS 50 1 323
1867 NA NA 06:00:00 TS 35.40 -47.40 1336 1333 _____________O -1 35.40 -47.40 TS 50 1 324
1867 NA NA 09:00:00 TS 35.45 -47.46 1322 1322 _____________P -1 35.45 -47.46 TS 50 1 323
1867 NA NA 12:00:00 TS 35.50 -47.50 1322 1322 _____________O -1 35.50 -47.50 TS 50 1 343
1867 NA NA 15:00:00 TS 35.55 -47.51 1312 1312 _____________P -1 35.55 -47.51 TS 50 1 0
1867 NA NA 18:00:00 TS 35.60 -47.50 1312 1312 _____________O -1 35.60 -47.50 TS 50 1 0
1867 NA NA 21:00:00 TS 35.65 -47.50 1301 1301 _____________P -1 35.65 -47.50 TS 50 1 0
1867 NA NA 1867-09-10 00:00:00 TS 35.70 -47.50 1301 1301 _____________O -1 35.70 -47.50 TS 50 1 0
1867 NA NA 03:00:00 TS 35.75 -47.50 1291 1291 _____________P -1 35.75 -47.50 TS 52 1 0
1867 NA NA 06:00:00 TS 35.80 -47.50 1291 1280 _____________O -1 35.80 -47.50 TS 55 1 0
1867 NA NA 09:00:00 TS 35.86 -47.50 1280 1280 _____________P -1 35.86 -47.50 TS 55 1 0
1867 NA NA 12:00:00 TS 35.90 -47.50 1280 1280 _____________O -1 35.90 -47.50 TS 55 0 0
1867 NA NA 15:00:00 TS 35.90 -47.50 1280 1280 _____________P -1 35.90 -47.50 TS 55 0 0
1867 NA NA 18:00:00 TS 35.90 -47.50 1280 1280 _____________O -1 35.90 -47.50 TS 55 1 333
1867 NA NA 21:00:00 TS 35.95 -47.51 1270 1270 _____________P -1 35.95 -47.51 TS 55 1 0
1867 NA NA 1867-09-11 00:00:00 TS 36.00 -47.50 1270 1270 _____________O -1 36.00 -47.50 TS 55 1 43
1867 NA NA 03:00:00 TS 36.00 -47.46 1270 1270 _____________P -1 36.00 -47.46 TS 55 1 90
1867 NA NA 06:00:00 TS 36.00 -47.40 1273 1273 _____________O -1 36.00 -47.40 TS 55 1 69
1867 NA NA 09:00:00 TS 36.03 -47.35 1276 1266 _____________P -1 36.03 -47.35 TS 55 1 37
1867 NA NA 12:00:00 TS 36.10 -47.30 1266 1255 _____________O -1 36.10 -47.30 TS 55 2 29
1867 NA NA 15:00:00 TS 36.18 -47.25 1258 1248 _____________P -1 36.18 -47.25 TS 57 2 23
1867 NA NA 18:00:00 TS 36.30 -47.20 1248 1227 _____________O -1 36.30 -47.20 TS 60 992 3 12
1867 NA NA 21:00:00 TS 36.48 -47.16 1227 1210 _____________P -1 36.48 -47.16 TS 60 4 11
1867 NA NA 1867-09-12 00:00:00 TS 36.70 -47.10 1210 1193 _____________O -1 36.70 -47.10 TS 60 4 21
1867 NA NA 03:00:00 TS 36.90 -46.97 1193 1180 _____________P -1 36.90 -46.97 TS 60 5 31
1867 NA NA 06:00:00 TS 37.10 -46.80 1180 1170 _____________O -1 37.10 -46.80 TS 60 4 33
1867 NA NA 09:00:00 TS 37.24 -46.69 1174 1151 _____________P -1 37.24 -46.69 TS 57 5 31
1867 NA NA 12:00:00 TS 37.50 -46.50 1151 1114 _____________O -1 37.50 -46.50 TS 55 9 28
1867 NA NA 15:00:00 TS 38.05 -46.15 1118 1069 _____________P -1 38.05 -46.15 TS 55 14 28
1867 NA NA 18:00:00 TS 38.70 -45.70 1069 1042 _____________O -1 38.70 -45.70 TS 55 14 30
1867 NA NA 21:00:00 TS 39.25 -45.26 1042 1014 _____________P -1 39.25 -45.26 TS 52 13 32
1867 NA NA 1867-09-13 00:00:00 TS 39.80 -44.80 1014 986 _____________O -1 39.80 -44.80 TS 50 13 31
1867 NA NA 03:00:00 TS 40.40 -44.35 992 968 _____________P -1 40.40 -44.35 TS 47 14 30
1867 NA NA 06:00:00 TS 41.00 -43.90 968 956 _____________O -1 41.00 -43.90 TS 45 13 30
1867 NA NA 09:00:00 TS 41.56 -43.45 949 946 _____________P -1 41.56 -43.45 TS 42 13 31
1867 NA NA 12:00:00 TS 42.10 -43.00 946 _____________O -1 42.10 -43.00 TS 40 13 32